Time;durP1;ratioP1;P1;durP2;ratioP2;P2;SDS_P1;SDS_P2;PMS_P1;PMS_P2;Temp;Humidity;BMP_temperature;BMP_pressure;BME280_temperature;BME280_humidity;BME280_pressure;Samples;Min_cycle;Max_cycle;Signal;HPM_P1;HPM_P2
2024/04/14 00:02:05;;;;;;;;;;;;;;;20.21;54.81;101367.25;5232361;27;19932;-93
2024/04/14 00:04:30;;;;;;;;;;;;;;;20.21;55.05;101370.78;5227044;27;19940;-94
2024/04/14 00:06:56;;;;;;;;;;;;;;;20.22;55.02;101356.06;5238660;27;19931;-92
2024/04/14 00:09:21;;;;;;;;;;;;;;;20.24;54.95;101355.75;5236613;27;20305;-92
2024/04/14 00:11:46;;;;;;;;;;;;;;;20.26;54.46;101358.19;5220869;27;19932;-93
2024/04/14 00:14:11;;;;;;;;;;;;;;;20.28;54.59;101359.50;5240456;27;19939;-93
2024/04/14 00:16:38;;;;;;;;;;;;;;;20.32;54.41;101357.00;5244105;27;20380;-93
2024/04/14 00:19:03;;;;;;;;;;;;;;;20.32;54.35;101352.38;5232705;27;20012;-93
2024/04/14 00:21:29;;;;;;;;;;;;;;;20.34;54.84;101349.34;5234797;27;19943;-93
2024/04/14 00:23:55;;;;;;;;;;;;;;;20.36;54.52;101347.13;5216809;27;20607;-93
2024/04/14 00:26:20;;;;;;;;;;;;;;;20.38;54.58;101339.47;5229094;27;19939;-93
2024/04/14 00:28:45;;;;;;;;;;;;;;;20.41;54.73;101334.28;5235694;27;19931;-93
2024/04/14 00:31:10;;;;;;;;;;;;;;;20.43;54.49;101340.22;5236635;27;22260;-93
2024/04/14 00:33:36;;;;;;;;;;;;;;;20.45;54.24;101331.75;5233009;27;19985;-93
2024/04/14 00:36:01;;;;;;;;;;;;;;;20.45;54.44;101335.28;5236362;27;19931;-93
2024/04/14 00:38:26;;;;;;;;;;;;;;;20.45;54.41;101331.75;5226871;27;19936;-92
2024/04/14 00:40:52;;;;;;;;;;;;;;;20.48;54.33;101336.63;5246279;27;20396;-93
2024/04/14 00:43:17;;;;;;;;;;;;;;;20.51;54.17;101330.56;5214024;27;19943;-93
2024/04/14 00:45:43;;;;;;;;;;;;;;;20.50;54.36;101321.59;5241093;27;19932;-92
2024/04/14 00:48:08;;;;;;;;;;;;;;;20.50;54.22;101318.88;5234039;27;19947;-93
2024/04/14 00:50:33;;;;;;;;;;;;;;;20.51;54.08;101311.50;5234774;27;19943;-91
2024/04/14 00:52:59;;;;;;;;;;;;;;;20.52;54.32;101315.84;5245739;27;19940;-92
2024/04/14 00:55:24;;;;;;;;;;;;;;;20.51;54.12;101306.88;5226716;27;20002;-92
2024/04/14 00:57:50;;;;;;;;;;;;;;;20.51;53.95;101316.97;5218791;27;19939;-92
2024/04/14 01:00:15;;;;;;;;;;;;;;;20.50;54.12;101307.19;5235873;27;20598;-92
2024/04/14 01:02:41;;;;;;;;;;;;;;;20.48;53.94;101301.22;5232869;27;19939;-93
2024/04/14 01:05:06;;;;;;;;;;;;;;;20.45;54.44;101291.72;5223046;27;19933;-93
2024/04/14 01:07:31;;;;;;;;;;;;;;;20.46;54.39;101296.06;5224469;27;19940;-93
2024/04/14 01:09:57;;;;;;;;;;;;;;;20.47;54.07;101299.63;5233110;27;19938;-93
2024/04/14 01:12:23;;;;;;;;;;;;;;;20.45;54.41;101289.00;5228292;27;19932;-93
2024/04/14 01:14:50;;;;;;;;;;;;;;;20.44;53.87;101286.59;5233460;27;20268;-92
2024/04/14 01:17:15;;;;;;;;;;;;;;;20.45;54.12;101280.03;5234032;27;19932;-93
2024/04/14 01:19:40;;;;;;;;;;;;;;;20.44;54.23;101278.41;5236962;27;19939;-92
2024/04/14 01:22:05;;;;;;;;;;;;;;;20.40;53.85;101280.09;5231780;27;19943;-93
2024/04/14 01:24:31;;;;;;;;;;;;;;;20.35;54.17;101272.06;5230446;27;19932;-92
2024/04/14 01:26:56;;;;;;;;;;;;;;;20.30;54.04;101277.59;5230929;27;19938;-92
2024/04/14 01:29:21;;;;;;;;;;;;;;;20.28;54.47;101271.63;5238992;27;19932;-93
2024/04/14 01:31:46;;;;;;;;;;;;;;;20.25;54.35;101273.03;5241062;27;19948;-92
2024/04/14 01:34:14;;;;;;;;;;;;;;;20.23;54.38;101267.88;5220715;27;20551;-92
2024/04/14 01:36:39;;;;;;;;;;;;;;;20.19;54.47;101255.19;5219020;27;19932;-93
2024/04/14 01:39:05;;;;;;;;;;;;;;;20.16;54.63;101262.03;5227231;27;19939;-92
2024/04/14 01:41:30;;;;;;;;;;;;;;;20.15;54.74;101263.16;5221330;27;19932;-92
2024/04/14 01:43:55;;;;;;;;;;;;;;;20.15;54.57;101257.72;5244175;27;19939;-93
2024/04/14 01:46:21;;;;;;;;;;;;;;;20.12;54.65;101254.78;5230136;27;19932;-93
2024/04/14 01:48:46;;;;;;;;;;;;;;;20.08;54.76;101259.19;5235432;27;19932;-94
2024/04/14 01:51:12;;;;;;;;;;;;;;;20.04;55.00;101256.28;5225023;27;19935;-92
2024/04/14 01:53:38;;;;;;;;;;;;;;;20.00;54.91;101257.16;5239124;27;19980;-94
2024/04/14 01:56:03;;;;;;;;;;;;;;;19.98;55.43;101251.22;5228047;27;19932;-94
2024/04/14 01:58:28;;;;;;;;;;;;;;;19.97;55.21;101253.13;5220277;27;19963;-93
2024/04/14 02:00:53;;;;;;;;;;;;;;;19.97;55.39;101257.78;5242167;27;19932;-92
2024/04/14 02:03:19;;;;;;;;;;;;;;;19.98;54.77;101260.19;5237407;27;19939;-93
2024/04/14 02:05:44;;;;;;;;;;;;;;;19.97;55.16;101253.13;5238311;27;19940;-94
2024/04/14 02:08:09;;;;;;;;;;;;;;;19.98;55.06;101254.75;5233031;27;19935;-94
2024/04/14 02:10:43;;;;;;;;;;;;;;;20.01;55.02;101256.06;5231406;27;19951;-93
2024/04/14 02:13:09;;;;;;;;;;;;;;;20.01;55.35;101247.91;5224827;27;20255;-94
2024/04/14 02:15:34;;;;;;;;;;;;;;;20.03;55.05;101241.06;5231818;27;19938;-93
2024/04/14 02:17:59;;;;;;;;;;;;;;;20.04;55.14;101248.09;5236371;27;20715;-94
2024/04/14 02:20:24;;;;;;;;;;;;;;;20.07;55.11;101242.06;5225636;27;19932;-93
2024/04/14 02:22:49;;;;;;;;;;;;;;;20.07;55.22;101247.50;5233932;27;19947;-94
2024/04/14 02:25:15;;;;;;;;;;;;;;;20.08;55.21;101251.03;5237436;27;19932;-94
2024/04/14 02:27:40;;;;;;;;;;;;;;;20.08;55.06;101246.41;5240951;27;19931;-93
2024/04/14 02:30:05;;;;;;;;;;;;;;;20.08;55.14;101240.97;5228796;27;19935;-94
2024/04/14 02:32:30;;;;;;;;;;;;;;;20.08;55.08;101243.69;5227598;27;19932;-94
2024/04/14 02:34:56;;;;;;;;;;;;;;;20.07;55.07;101239.34;5234077;27;19939;-93
2024/04/14 02:37:21;;;;;;;;;;;;;;;20.09;54.81;101245.28;5226573;27;19952;-94
2024/04/14 02:39:46;;;;;;;;;;;;;;;20.11;54.88;101248.53;5240395;27;19931;-93
2024/04/14 02:42:11;;;;;;;;;;;;;;;20.13;55.24;101248.25;5238908;27;20003;-94
2024/04/14 02:44:38;;;;;;;;;;;;;;;20.12;54.71;101244.72;5232942;27;19931;-94
2024/04/14 02:47:03;;;;;;;;;;;;;;;20.13;54.79;101246.31;5230591;27;20002;-94
2024/04/14 02:49:30;;;;;;;;;;;;;;;20.12;54.82;101250.16;5228276;27;20429;-93
2024/04/14 02:51:55;;;;;;;;;;;;;;;20.11;54.61;101248.53;5232034;27;19938;-94
2024/04/14 02:54:21;;;;;;;;;;;;;;;20.09;54.71;101241.75;5225801;27;19940;-94
2024/04/14 02:56:46;;;;;;;;;;;;;;;20.08;54.68;101243.69;5243019;27;20277;-95
2024/04/14 02:59:11;;;;;;;;;;;;;;;20.08;54.93;101245.59;5229437;27;20330;-94
2024/04/14 03:01:36;;;;;;;;;;;;;;;20.05;55.14;101244.28;5224737;27;19943;-94
2024/04/14 03:04:01;;;;;;;;;;;;;;;20.05;55.00;101241.56;5242889;27;19935;-94
2024/04/14 03:06:27;;;;;;;;;;;;;;;20.01;55.17;101240.56;5239358;27;19931;-94
2024/04/14 03:08:52;;;;;;;;;;;;;;;19.99;55.11;101240.03;5192738;27;19940;-94
2024/04/14 03:11:17;;;;;;;;;;;;;;;19.97;55.35;101247.69;5231684;27;19939;-95
2024/04/14 03:13:42;;;;;;;;;;;;;;;19.98;55.29;101237.63;5237775;27;20276;-93
2024/04/14 03:16:07;;;;;;;;;;;;;;;19.97;55.39;101241.47;5235174;27;19960;-93
2024/04/14 03:18:33;;;;;;;;;;;;;;;19.95;55.14;101252.63;5208718;27;19979;-93
2024/04/14 03:20:59;;;;;;;;;;;;;;;19.92;55.43;101256.72;5238912;27;20003;-94
2024/04/14 03:23:24;;;;;;;;;;;;;;;19.92;55.71;101259.44;5231345;27;19999;-93
2024/04/14 03:25:50;;;;;;;;;;;;;;;19.93;55.59;101263.00;5246923;27;20011;-93
2024/04/14 03:28:15;;;;;;;;;;;;;;;19.91;55.97;101263.28;5237536;27;19964;-93
2024/04/14 03:30:41;;;;;;;;;;;;;;;19.91;55.94;101270.63;5230882;27;19932;-94
2024/04/14 03:33:06;;;;;;;;;;;;;;;19.92;55.91;101264.91;5236496;27;20368;-94
2024/04/14 03:35:31;;;;;;;;;;;;;;;19.95;55.92;101271.69;5223085;27;19939;-94
2024/04/14 03:37:56;;;;;;;;;;;;;;;20.00;56.23;101268.84;5241736;27;19932;-93
2024/04/14 03:40:21;;;;;;;;;;;;;;;20.04;56.44;101275.31;5236983;27;19932;-92
2024/04/14 03:42:47;;;;;;;;;;;;;;;20.12;55.96;101273.84;5226839;27;20289;-91
2024/04/14 03:45:12;;;;;;;;;;;;;;;20.18;56.53;101270.72;5243713;27;20614;-93
2024/04/14 03:47:40;;;;;;;;;;;;;;;20.24;56.48;101276.84;5231449;27;19987;-93
2024/04/14 03:50:06;;;;;;;;;;;;;;;20.30;56.77;101275.69;5250888;27;20006;-93
2024/04/14 03:52:31;;;;;;;;;;;;;;;20.35;56.69;101270.13;5249118;27;21830;-93
2024/04/14 03:54:56;;;;;;;;;;;;;;;20.40;56.58;101275.47;5236534;27;20003;-92
2024/04/14 03:57:21;;;;;;;;;;;;;;;20.43;56.66;101276.81;5235089;27;19939;-93
2024/04/14 03:59:48;;;;;;;;;;;;;;;20.47;56.61;101280.56;5233071;27;19940;-94
2024/04/14 04:02:14;;;;;;;;;;;;;;;20.49;56.91;101289.22;5230201;27;20307;-93
2024/04/14 04:04:39;;;;;;;;;;;;;;;20.50;56.90;101279.97;5234190;27;19932;-92
2024/04/14 04:07:04;;;;;;;;;;;;;;;20.52;56.62;101288.63;5236151;27;20273;-94
2024/04/14 04:09:30;;;;;;;;;;;;;;;20.53;56.89;101290.25;5227540;27;20495;-93
2024/04/14 04:11:55;;;;;;;;;;;;;;;20.57;56.54;101293.16;5233433;27;19939;-94
2024/04/14 04:14:20;;;;;;;;;;;;;;;20.55;56.40;101301.63;5231840;27;19948;-92
2024/04/14 04:16:45;;;;;;;;;;;;;;;20.56;56.37;101307.88;5207944;27;19931;-93
2024/04/14 04:19:11;;;;;;;;;;;;;;;20.55;56.45;101307.06;5235647;27;19938;-93
2024/04/14 04:21:37;;;;;;;;;;;;;;;20.58;56.16;101313.81;5234455;27;20356;-92
2024/04/14 04:24:02;;;;;;;;;;;;;;;20.57;56.28;101314.94;5238703;27;19938;-92
2024/04/14 04:26:27;;;;;;;;;;;;;;;20.54;56.35;101313.63;5237742;27;20272;-90
2024/04/14 04:28:52;;;;;;;;;;;;;;;20.50;56.46;101320.78;5236686;27;19932;-92
2024/04/14 04:31:18;;;;;;;;;;;;;;;20.51;56.20;101336.00;5231928;27;19938;-91
2024/04/14 04:33:43;;;;;;;;;;;;;;;20.49;55.99;101343.69;5227181;27;19932;-92
2024/04/14 04:36:08;;;;;;;;;;;;;;;20.45;56.22;101332.56;5233712;27;19940;-90
2024/04/14 04:38:33;;;;;;;;;;;;;;;20.42;55.96;101335.06;5246305;27;20701;-91
2024/04/14 04:40:59;;;;;;;;;;;;;;;20.37;56.10;101340.59;5250751;27;20284;-89
2024/04/14 04:43:24;;;;;;;;;;;;;;;20.34;56.19;101349.34;5240291;27;20257;-89
2024/04/14 04:45:49;;;;;;;;;;;;;;;20.33;55.97;101358.63;5235797;27;20381;-91
2024/04/14 04:48:15;;;;;;;;;;;;;;;20.31;55.90;101360.84;5231380;27;19932;-91
2024/04/14 04:50:40;;;;;;;;;;;;;;;20.28;55.97;101364.13;5239962;27;19939;-90
2024/04/14 04:53:05;;;;;;;;;;;;;;;20.22;55.61;101374.31;5246529;27;20585;-90
2024/04/14 04:55:30;;;;;;;;;;;;;;;20.12;54.77;101372.56;5240513;27;20005;-89
2024/04/14 04:57:56;;;;;;;;;;;;;;;20.12;55.03;101372.56;5244687;27;19937;-90
2024/04/14 05:00:21;;;;;;;;;;;;;;;20.06;54.83;101371.03;5235930;27;19940;-91
2024/04/14 05:02:46;;;;;;;;;;;;;;;20.04;54.37;101383.31;5233975;27;19959;-90
2024/04/14 05:05:12;;;;;;;;;;;;;;;20.04;54.10;101381.38;5240619;27;20525;-89
2024/04/14 05:07:37;;;;;;;;;;;;;;;20.08;54.03;101392.47;5235829;27;19931;-88
2024/04/14 05:10:02;;;;;;;;;;;;;;;20.05;54.50;101391.16;5232870;27;19931;-89
2024/04/14 05:12:27;;;;;;;;;;;;;;;20.05;53.72;101396.59;5234790;27;19935;-90
2024/04/14 05:14:53;;;;;;;;;;;;;;;20.02;53.48;101402.66;5236027;27;19936;-92
2024/04/14 05:17:18;;;;;;;;;;;;;;;19.99;53.39;101408.69;5206776;27;19931;-90
2024/04/14 05:19:43;;;;;;;;;;;;;;;19.99;53.65;101419.56;5232246;27;19942;-91
2024/04/14 05:22:08;;;;;;;;;;;;;;;20.02;53.70;101413.53;5241649;27;20385;-90
2024/04/14 05:24:33;;;;;;;;;;;;;;;20.00;53.75;101415.72;5239742;27;19931;-89
2024/04/14 05:26:59;;;;;;;;;;;;;;;20.03;53.32;101417.84;5237349;27;19983;-92
2024/04/14 05:29:25;;;;;;;;;;;;;;;20.02;53.42;101429.03;5233236;27;19939;-91
2024/04/14 05:31:51;;;;;;;;;;;;;;;19.99;53.28;101429.63;5238818;27;20002;-91
2024/04/14 05:34:16;;;;;;;;;;;;;;;19.91;52.94;101429.16;5242682;27;19932;-93
2024/04/14 05:36:41;;;;;;;;;;;;;;;19.87;52.77;101435.50;5237223;27;19931;-92
2024/04/14 05:39:07;;;;;;;;;;;;;;;19.87;52.67;101433.59;5241661;27;19931;-92
2024/04/14 05:41:32;;;;;;;;;;;;;;;19.83;52.14;101437.19;5240472;27;19942;-92
2024/04/14 05:43:57;;;;;;;;;;;;;;;19.83;52.02;101431.75;5238540;27;19932;-93
2024/04/14 05:46:22;;;;;;;;;;;;;;;19.74;52.11;101438.94;5226640;27;20384;-93
2024/04/14 05:48:48;;;;;;;;;;;;;;;19.67;51.56;101433.88;5231387;27;19932;-92
2024/04/14 05:51:13;;;;;;;;;;;;;;;19.66;51.40;101437.69;5228829;27;19932;-88
2024/04/14 05:53:39;;;;;;;;;;;;;;;19.63;51.35;101434.75;5230843;27;20018;-91
2024/04/14 05:56:04;;;;;;;;;;;;;;;19.56;50.31;101433.19;5251437;27;19938;-92
2024/04/14 05:58:29;;;;;;;;;;;;;;;19.57;51.24;101453.84;5238970;27;20503;-93
2024/04/14 06:00:54;;;;;;;;;;;;;;;19.57;50.99;101453.03;5235380;27;19932;-92
2024/04/14 06:03:20;;;;;;;;;;;;;;;19.61;51.37;101463.03;5231808;27;19931;-93
2024/04/14 06:05:48;;;;;;;;;;;;;;;19.61;50.69;101451.34;5239289;27;20272;-93
2024/04/14 06:08:13;;;;;;;;;;;;;;;19.59;50.73;101459.00;5242347;27;19979;-93
2024/04/14 06:10:39;;;;;;;;;;;;;;;19.57;50.72;101453.84;5248079;27;19936;-92
2024/04/14 06:13:04;;;;;;;;;;;;;;;19.58;50.75;101462.81;5240877;27;20627;-93
2024/04/14 06:15:29;;;;;;;;;;;;;;;19.62;50.66;101463.84;5224320;27;19931;-94
2024/04/14 06:17:54;;;;;;;;;;;;;;;19.60;50.77;101458.69;5235394;27;19932;-93
2024/04/14 06:20:20;;;;;;;;;;;;;;;19.62;50.63;101466.56;5229200;27;19936;-93
2024/04/14 06:22:45;;;;;;;;;;;;;;;19.60;50.52;101477.72;5238252;27;19938;-93
2024/04/14 06:25:10;;;;;;;;;;;;;;;19.56;50.46;101484.81;5239430;27;19931;-92
2024/04/14 06:27:35;;;;;;;;;;;;;;;19.56;50.65;101470.44;5231090;27;19940;-93
2024/04/14 06:30:00;;;;;;;;;;;;;;;19.57;50.50;101481.03;5232752;27;19939;-93
2024/04/14 06:32:26;;;;;;;;;;;;;;;19.59;50.83;101478.03;5234824;27;21020;-92
2024/04/14 06:34:51;;;;;;;;;;;;;;;19.62;50.90;101482.88;5234881;27;19932;-93
2024/04/14 06:37:17;;;;;;;;;;;;;;;19.65;50.46;101485.00;5230163;27;19939;-93
2024/04/14 06:39:42;;;;;;;;;;;;;;;19.73;50.92;101486.25;5236213;27;19979;-93
2024/04/14 06:42:08;;;;;;;;;;;;;;;19.84;50.48;101485.03;5236913;27;19972;-93
2024/04/14 06:44:33;;;;;;;;;;;;;;;19.94;50.47;101490.34;5229163;27;20342;-93
2024/04/14 06:46:58;;;;;;;;;;;;;;;20.09;50.00;101483.88;5240373;27;19932;-93
2024/04/14 06:49:23;;;;;;;;;;;;;;;20.14;50.05;101489.25;5222993;27;19932;-94
2024/04/14 06:51:49;;;;;;;;;;;;;;;20.21;50.18;101490.50;5236640;27;20643;-92
2024/04/14 06:54:14;;;;;;;;;;;;;;;20.22;50.06;101497.56;5231998;27;19939;-93
2024/04/14 06:56:39;;;;;;;;;;;;;;;20.27;49.92;101517.63;5223270;27;19948;-93
2024/04/14 06:59:04;;;;;;;;;;;;;;;20.28;49.66;101509.16;5235764;27;19932;-93
2024/04/14 07:01:29;;;;;;;;;;;;;;;20.29;49.46;101497.19;5236235;27;19932;-93
2024/04/14 07:03:55;;;;;;;;;;;;;;;20.32;49.71;101495.81;5233891;27;19939;-94
2024/04/14 07:06:20;;;;;;;;;;;;;;;20.32;49.24;101502.06;5207525;27;20002;-94
2024/04/14 07:08:45;;;;;;;;;;;;;;;20.29;49.28;101501.81;5232776;27;19932;-93
2024/04/14 07:11:10;;;;;;;;;;;;;;;20.22;49.16;101502.19;5241618;27;19936;-94
2024/04/14 07:13:35;;;;;;;;;;;;;;;20.16;49.48;101523.22;5243147;27;19943;-94
2024/04/14 07:16:01;;;;;;;;;;;;;;;20.14;49.13;101509.09;5243997;27;19996;-92
2024/04/14 07:18:26;;;;;;;;;;;;;;;20.14;48.90;101511.03;5236142;27;19942;-94
2024/04/14 07:20:52;;;;;;;;;;;;;;;20.15;49.30;101508.00;5250293;27;19983;-93
2024/04/14 07:23:17;;;;;;;;;;;;;;;20.16;48.26;101516.97;5232786;27;19939;-93
2024/04/14 07:25:42;;;;;;;;;;;;;;;20.16;48.41;101517.78;5231770;27;19952;-93
2024/04/14 07:28:07;;;;;;;;;;;;;;;20.13;48.03;101523.81;5240238;27;19932;-94
2024/04/14 07:30:32;;;;;;;;;;;;;;;20.09;46.84;101522.75;5241477;27;20458;-93
2024/04/14 07:32:58;;;;;;;;;;;;;;;20.09;47.18;101527.41;5242458;27;19939;-92
2024/04/14 07:35:23;;;;;;;;;;;;;;;20.12;46.96;101524.91;5250716;27;19943;-94
2024/04/14 07:37:48;;;;;;;;;;;;;;;20.22;46.34;101527.47;5234678;27;20046;-93
2024/04/14 07:40:13;;;;;;;;;;;;;;;20.23;46.05;101534.53;5235479;27;19932;-93
2024/04/14 07:42:39;;;;;;;;;;;;;;;20.25;46.40;101531.53;5241263;27;20003;-91
2024/04/14 07:45:05;;;;;;;;;;;;;;;20.37;46.61;101539.25;5249113;27;19932;-93
2024/04/14 07:47:30;;;;;;;;;;;;;;;20.41;45.73;101549.28;5233577;27;19932;-93
2024/04/14 07:49:55;;;;;;;;;;;;;;;20.43;45.93;101546.28;5247655;27;19939;-93
2024/04/14 07:52:20;;;;;;;;;;;;;;;20.39;45.66;101548.75;5230886;27;20442;-93
2024/04/14 07:54:45;;;;;;;;;;;;;;;20.40;45.26;101549.56;5231147;27;19932;-93
2024/04/14 07:57:11;;;;;;;;;;;;;;;20.39;45.48;101546.03;5243863;27;19931;-92
2024/04/14 07:59:37;;;;;;;;;;;;;;;20.36;45.05;101554.78;5237876;27;19932;-93
2024/04/14 08:02:02;;;;;;;;;;;;;;;20.35;45.58;101564.06;5236908;27;20673;-93
2024/04/14 08:04:28;;;;;;;;;;;;;;;20.40;45.35;101565.88;5230010;27;19940;-94
2024/04/14 08:06:53;;;;;;;;;;;;;;;20.41;44.85;101579.22;5241916;27;19940;-91
2024/04/14 08:09:18;;;;;;;;;;;;;;;20.42;44.55;101574.59;5236253;27;19932;-92
2024/04/14 08:11:43;;;;;;;;;;;;;;;20.46;44.41;101572.88;5233130;27;20032;-94
2024/04/14 08:14:10;;;;;;;;;;;;;;;20.49;44.10;101580.50;5238325;27;19939;-93
2024/04/14 08:16:35;;;;;;;;;;;;;;;20.55;44.19;101584.75;5242347;27;19938;-93
2024/04/14 08:19:01;;;;;;;;;;;;;;;20.59;43.89;101583.06;5205686;27;19932;-90
2024/04/14 08:21:26;;;;;;;;;;;;;;;20.62;43.40;101589.81;5233743;27;20641;-94
2024/04/14 08:23:51;;;;;;;;;;;;;;;20.63;43.24;101592.25;5230677;27;20812;-93
2024/04/14 08:26:17;;;;;;;;;;;;;;;20.69;41.25;101585.63;5232048;27;19936;-92
2024/04/14 08:28:42;;;;;;;;;;;;;;;20.68;40.42;101600.34;5241060;27;20009;-91
2024/04/14 08:31:07;;;;;;;;;;;;;;;20.71;40.25;101598.97;5240242;27;19938;-88
2024/04/14 08:33:32;;;;;;;;;;;;;;;20.66;38.65;101602.56;5198631;27;19939;-88
2024/04/14 08:35:57;;;;;;;;;;;;;;;20.63;37.70;101602.31;5232164;27;20043;-91
2024/04/14 08:38:23;;;;;;;;;;;;;;;20.66;37.78;101613.47;5235652;27;19963;-91
2024/04/14 08:40:51;;;;;;;;;;;;;;;20.61;35.01;101612.72;5233514;27;19931;-90
2024/04/14 08:43:17;;;;;;;;;;;;;;;20.59;37.67;101607.56;5249346;27;19943;-91
2024/04/14 08:45:42;;;;;;;;;;;;;;;20.61;37.52;101616.22;5198333;27;20369;-90
2024/04/14 08:48:09;;;;;;;;;;;;;;;20.68;36.60;101629.50;5224475;27;20572;-89
2024/04/14 08:50:35;;;;;;;;;;;;;;;20.68;33.95;101619.41;5224592;27;21708;-85
2024/04/14 08:53:01;;;;;;;;;;;;;;;20.64;35.12;101625.72;5229246;27;19938;-91
2024/04/14 08:55:26;;;;;;;;;;;;;;;20.58;33.64;101638.59;5228848;27;19931;-89
2024/04/14 08:57:51;;;;;;;;;;;;;;;20.64;35.77;101636.63;5230385;27;19940;-91
2024/04/14 09:00:18;;;;;;;;;;;;;;;20.61;36.55;101648.09;5234184;27;20002;-90
2024/04/14 09:02:45;;;;;;;;;;;;;;;20.59;36.00;101644.88;5234268;27;19940;-90
2024/04/14 09:05:12;;;;;;;;;;;;;;;20.56;35.79;101649.00;5207762;27;19960;-91
2024/04/14 09:07:37;;;;;;;;;;;;;;;20.64;35.61;101645.59;5234383;27;20373;-92
2024/04/14 09:10:04;;;;;;;;;;;;;;;20.82;36.69;101649.41;5231526;27;19939;-90
2024/04/14 09:12:29;;;;;;;;;;;;;;;20.89;35.14;101662.69;5237791;27;20356;-92
2024/04/14 09:14:55;;;;;;;;;;;;;;;20.90;35.70;101667.03;5234580;27;19932;-91
2024/04/14 09:17:20;;;;;;;;;;;;;;;20.96;35.13;101672.09;5231843;27;20748;-88
2024/04/14 09:19:45;;;;;;;;;;;;;;;20.95;34.50;101672.41;5230161;27;19982;-93
2024/04/14 09:22:13;;;;;;;;;;;;;;;20.92;35.00;101675.72;5223827;27;19932;-92
2024/04/14 09:24:38;;;;;;;;;;;;;;;20.82;34.93;101679.38;5225697;27;19932;-93
2024/04/14 09:27:03;;;;;;;;;;;;;;;20.83;34.91;101681.03;5229042;27;20369;-92
2024/04/14 09:29:29;;;;;;;;;;;;;;;20.87;34.26;101675.81;5230585;27;19939;-90
2024/04/14 09:31:54;;;;;;;;;;;;;;;20.86;33.08;101679.63;5223130;27;19944;-87
2024/04/14 09:34:20;;;;;;;;;;;;;;;20.75;32.95;101684.41;5235627;27;20305;-92
2024/04/14 09:36:46;;;;;;;;;;;;;;;20.76;33.31;101680.56;5222801;27;19940;-91
2024/04/14 09:39:11;;;;;;;;;;;;;;;20.73;31.39;101679.25;5228305;27;19936;-92
2024/04/14 09:41:37;;;;;;;;;;;;;;;20.79;32.77;101688.16;5237379;27;19939;-91
2024/04/14 09:44:02;;;;;;;;;;;;;;;20.75;32.66;101693.38;5232076;27;20364;-90
2024/04/14 09:46:27;;;;;;;;;;;;;;;20.74;33.42;101686.31;5244369;27;19931;-90
2024/04/14 09:48:53;;;;;;;;;;;;;;;20.78;32.44;101692.78;5241270;27;19940;-90
2024/04/14 09:51:19;;;;;;;;;;;;;;;20.79;31.01;101685.41;5228218;27;19939;-90
2024/04/14 09:53:44;;;;;;;;;;;;;;;20.88;34.22;101694.56;5230949;27;19939;-90
2024/04/14 09:56:10;;;;;;;;;;;;;;;20.93;32.48;101690.94;5239575;27;19939;-90
2024/04/14 09:58:35;;;;;;;;;;;;;;;20.96;33.41;101691.16;5240249;27;19939;-89
2024/04/14 10:01:03;;;;;;;;;;;;;;;20.93;32.29;101693.69;5244314;27;20416;-91
2024/04/14 10:03:30;;;;;;;;;;;;;;;20.88;33.16;101697.28;5242642;27;19936;-90
2024/04/14 10:05:57;;;;;;;;;;;;;;;20.91;33.94;101713.03;5232689;27;19931;-90
2024/04/14 10:08:22;;;;;;;;;;;;;;;21.01;33.97;101701.22;5233676;27;19960;-90
2024/04/14 10:10:51;;;;;;;;;;;;;;;21.22;34.12;101701.69;5232505;27;19932;-89
2024/04/14 10:13:17;;;;;;;;;;;;;;;21.49;34.03;101699.09;5244627;27;19931;-92
2024/04/14 10:15:44;;;;;;;;;;;;;;;21.63;33.43;101710.03;5239036;27;20383;-91
2024/04/14 10:18:10;;;;;;;;;;;;;;;21.67;32.40;101698.22;5241998;27;19932;-91
2024/04/14 10:20:44;;;;;;;;;;;;;;;21.68;32.46;101699.03;5222167;27;19939;-91
2024/04/14 10:23:15;;;;;;;;;;;;;;;21.56;32.84;101712.38;5229806;27;19932;-91
2024/04/14 10:25:44;;;;;;;;;;;;;;;21.50;31.74;101710.81;5228275;27;20051;-91
2024/04/14 10:28:09;;;;;;;;;;;;;;;21.44;32.51;101709.28;5235985;27;19946;-89
2024/04/14 10:30:35;;;;;;;;;;;;;;;21.43;32.50;101700.28;5236172;27;20264;-91
2024/04/14 10:33:03;;;;;;;;;;;;;;;21.46;31.85;101712.53;5243202;27;20364;-87
2024/04/14 10:35:28;;;;;;;;;;;;;;;21.40;31.52;101709.88;5240604;27;19999;-91
2024/04/14 10:37:54;;;;;;;;;;;;;;;21.41;31.44;101707.97;5255005;27;19932;-89
2024/04/14 10:40:19;;;;;;;;;;;;;;;21.46;31.63;101709.78;5237911;27;19939;-91
2024/04/14 10:42:48;;;;;;;;;;;;;;;21.47;31.20;101714.94;5251452;27;20006;-89
2024/04/14 10:45:23;;;;;;;;;;;;;;;21.42;30.93;101707.66;5233280;27;19931;-91
2024/04/14 10:47:49;;;;;;;;;;;;;;;21.42;31.30;101707.66;5233673;27;20011;-89
2024/04/14 10:50:15;;;;;;;;;;;;;;;21.53;31.18;101713.75;5235061;27;20389;-90
2024/04/14 10:52:41;;;;;;;;;;;;;;;21.56;29.16;101706.91;5236094;27;19968;-91
2024/04/14 10:55:06;;;;;;;;;;;;;;;21.62;31.08;101700.25;5237726;27;20002;-91
2024/04/14 10:57:31;;;;;;;;;;;;;;;21.65;30.72;101716.00;5232930;27;19931;-90
2024/04/14 10:59:56;;;;;;;;;;;;;;;21.71;30.99;101703.88;5237086;27;19955;-91
2024/04/14 11:02:21;;;;;;;;;;;;;;;21.77;29.55;101699.97;5231156;27;19931;-91
2024/04/14 11:04:47;;;;;;;;;;;;;;;21.84;30.58;101710.50;5250126;27;19939;-90
2024/04/14 11:07:12;;;;;;;;;;;;;;;21.90;29.56;101712.84;5238299;27;20067;-89
2024/04/14 11:09:38;;;;;;;;;;;;;;;21.90;30.39;101718.31;5243626;27;19932;-89
2024/04/14 11:12:04;;;;;;;;;;;;;;;21.95;30.44;101701.84;5250985;27;20369;-91
2024/04/14 11:14:29;;;;;;;;;;;;;;;22.04;30.96;101710.13;5211386;27;19959;-89
2024/04/14 11:16:55;;;;;;;;;;;;;;;22.20;30.50;101716.94;5221040;27;19932;-88
2024/04/14 11:19:20;;;;;;;;;;;;;;;22.20;28.77;101710.66;5240473;27;19932;-90
2024/04/14 11:21:46;;;;;;;;;;;;;;;22.24;30.39;101712.47;5245981;27;19939;-91
2024/04/14 11:24:11;;;;;;;;;;;;;;;22.29;30.59;101708.88;5256393;27;20017;-89
2024/04/14 11:26:40;;;;;;;;;;;;;;;22.40;30.56;101699.34;5255946;27;20002;-90
2024/04/14 11:29:05;;;;;;;;;;;;;;;22.52;30.82;101698.81;5211179;27;19971;-89
2024/04/14 11:31:31;;;;;;;;;;;;;;;22.73;31.29;101702.72;5240140;27;19935;-90
2024/04/14 11:33:58;;;;;;;;;;;;;;;22.88;27.53;101710.63;5210057;27;20783;-92
2024/04/14 11:36:29;;;;;;;;;;;;;;;22.85;28.26;101716.72;5230372;27;19931;-91
2024/04/14 11:38:54;;;;;;;;;;;;;;;22.84;27.43;101711.56;5233740;27;19932;-88
2024/04/14 11:41:20;;;;;;;;;;;;;;;22.83;27.43;101705.28;5241103;27;20529;-91
2024/04/14 11:43:45;;;;;;;;;;;;;;;22.83;24.61;101720.88;5232169;27;19944;-88
2024/04/14 11:46:10;;;;;;;;;;;;;;;22.75;26.22;101713.34;5232049;27;20535;-92
2024/04/14 11:48:35;;;;;;;;;;;;;;;22.65;27.07;101722.59;5233235;27;20443;-90
2024/04/14 11:51:00;;;;;;;;;;;;;;;22.69;26.94;101720.06;5226711;27;19939;-85
2024/04/14 11:53:26;;;;;;;;;;;;;;;22.72;24.85;101717.50;5235889;27;19931;-85
2024/04/14 11:55:51;;;;;;;;;;;;;;;22.75;24.90;101716.09;5226207;27;19995;-83
2024/04/14 11:58:18;;;;;;;;;;;;;;;22.71;26.53;101721.34;5230424;27;20724;-86
2024/04/14 12:00:44;;;;;;;;;;;;;;;22.73;25.58;101723.78;5243121;27;20629;-87
2024/04/14 12:03:09;;;;;;;;;;;;;;;22.75;26.69;101725.09;5230971;27;19939;-88
2024/04/14 12:05:34;;;;;;;;;;;;;;;22.78;26.41;101731.84;5241265;27;20079;-85
2024/04/14 12:08:00;;;;;;;;;;;;;;;22.81;27.41;101725.81;5225233;27;19946;-87
2024/04/14 12:10:25;;;;;;;;;;;;;;;22.90;27.19;101718.50;5245878;27;19983;-83
2024/04/14 12:12:51;;;;;;;;;;;;;;;22.99;27.67;101716.69;5237709;27;19950;-85
2024/04/14 12:15:16;;;;;;;;;;;;;;;23.09;27.94;101716.44;5223830;27;19936;-86
2024/04/14 12:17:41;;;;;;;;;;;;;;;23.31;27.26;101706.63;5234220;27;21092;-85
2024/04/14 12:20:07;;;;;;;;;;;;;;;23.51;27.36;101701.44;5234989;27;19931;-87
2024/04/14 12:22:32;;;;;;;;;;;;;;;23.57;27.09;101710.38;5229024;27;20369;-84
2024/04/14 12:24:57;;;;;;;;;;;;;;;23.50;26.18;101699.84;5246451;27;19962;-85
2024/04/14 12:27:23;;;;;;;;;;;;;;;23.47;25.73;101705.13;5223615;27;20006;-85